Time;durP1;ratioP1;P1;durP2;ratioP2;P2;SDS_P1;SDS_P2;PMS_P1;PMS_P2;Temp;Humidity;BMP_temperature;BMP_pressure;BME280_temperature;BME280_humidity;BME280_pressure;Samples;Min_cycle;Max_cycle;Signal;HPM_P1;HPM_P2
2023/05/15 00:01:46;;;;;;;136.57;58.80;;;;;;;;;;5051890;28;20049;-61
2023/05/15 00:04:12;;;;;;;159.73;65.00;;;;;;;;;;5051135;28;20419;-61
2023/05/15 00:06:38;;;;;;;216.57;69.17;;;;;;;;;;5051093;28;20045;-61
2023/05/15 00:09:04;;;;;;;157.60;59.27;;;;;;;;;;5051714;28;20049;-61
2023/05/15 00:11:30;;;;;;;217.67;71.23;;;;;;;;;;5050050;28;20049;-61
2023/05/15 00:13:56;;;;;;;387.97;82.63;;;;;;;;;;5049202;28;20037;-60
2023/05/15 00:16:24;;;;;;;244.17;73.73;;;;;;;;;;5050177;28;20052;-61
2023/05/15 00:18:50;;;;;;;161.87;62.70;;;;;;;;;;5050818;28;20047;-61
2023/05/15 00:21:16;;;;;;;140.07;57.87;;;;;;;;;;5050658;28;20529;-61
2023/05/15 00:23:42;;;;;;;283.47;74.03;;;;;;;;;;5049344;28;20565;-60
2023/05/15 00:26:08;;;;;;;312.60;73.57;;;;;;;;;;5050798;28;20063;-60
2023/05/15 00:28:34;;;;;;;155.70;60.53;;;;;;;;;;5050404;28;20052;-60
2023/05/15 00:31:00;;;;;;;176.37;62.83;;;;;;;;;;5049961;28;20413;-60
2023/05/15 00:33:26;;;;;;;152.37;56.67;;;;;;;;;;5050235;28;20055;-61
2023/05/15 00:35:52;;;;;;;144.47;58.60;;;;;;;;;;5050642;28;20084;-61
2023/05/15 00:38:18;;;;;;;106.97;49.67;;;;;;;;;;5050345;28;20053;-60
2023/05/15 00:40:45;;;;;;;125.40;53.50;;;;;;;;;;5050580;28;20045;-61
2023/05/15 00:43:11;;;;;;;164.03;55.53;;;;;;;;;;5050066;28;20044;-60
2023/05/15 00:45:40;;;;;;;100.53;47.93;;;;;;;;;;5049554;28;20215;-60
2023/05/15 00:48:08;;;;;;;104.87;47.77;;;;;;;;;;5049996;28;20094;-61
2023/05/15 00:50:35;;;;;;;119.90;50.13;;;;;;;;;;5050201;28;20045;-60
2023/05/15 00:53:01;;;;;;;90.90;46.83;;;;;;;;;;5050176;28;20045;-61
2023/05/15 00:55:28;;;;;;;113.37;49.53;;;;;;;;;;5050272;28;20110;-60
2023/05/15 00:57:55;;;;;;;122.57;49.43;;;;;;;;;;5050195;28;20567;-60
2023/05/15 01:00:22;;;;;;;377.37;68.80;;;;;;;;;;5049399;28;20044;-60
2023/05/15 01:02:48;;;;;;;347.37;65.83;;;;;;;;;;5050050;28;20056;-60
2023/05/15 01:05:14;;;;;;;228.70;47.67;;;;;;;;;;5050212;28;20033;-60
2023/05/15 01:07:48;;;;;;;230.27;58.97;;;;;;;;;;5049992;28;20114;-60
2023/05/15 01:10:15;;;;;;;254.53;51.43;;;;;;;;;;5050149;28;20049;-60
2023/05/15 01:12:41;;;;;;;241.17;53.20;;;;;;;;;;5049378;28;20084;-60
2023/05/15 01:15:08;;;;;;;175.07;45.17;;;;;;;;;;5049718;28;20049;-60
2023/05/15 01:17:34;;;;;;;83.77;42.07;;;;;;;;;;5049622;28;20041;-60
2023/05/15 01:20:01;;;;;;;192.63;51.00;;;;;;;;;;5049871;28;20045;-60
2023/05/15 01:22:54;;;;;;;96.63;44.50;;;;;;;;;;5049974;28;20041;-60
2023/05/15 01:25:22;;;;;;;194.70;50.53;;;;;;;;;;5048168;28;20458;-59
2023/05/15 01:27:50;;;;;;;137.60;43.97;;;;;;;;;;5050137;28;20089;-60
2023/05/15 01:30:30;;;;;;;187.73;47.40;;;;;;;;;;5049867;28;20055;-60
2023/05/15 01:33:05;;;;;;;132.70;44.17;;;;;;;;;;5049464;28;20049;-60
2023/05/15 01:35:42;;;;;;;128.90;43.53;;;;;;;;;;5049773;28;20045;-60
2023/05/15 01:38:15;;;;;;;93.40;43.10;;;;;;;;;;5049287;28;20049;-59
2023/05/15 01:40:41;;;;;;;91.13;44.03;;;;;;;;;;5048839;28;20582;-60
2023/05/15 01:43:08;;;;;;;129.07;45.00;;;;;;;;;;5048598;28;20044;-60
2023/05/15 01:45:36;;;;;;;97.87;42.10;;;;;;;;;;5050415;28;20041;-59
2023/05/15 01:48:05;;;;;;;229.13;47.17;;;;;;;;;;5048691;28;20095;-60
2023/05/15 01:50:32;;;;;;;98.63;45.70;;;;;;;;;;5049559;28;20048;-59
2023/05/15 01:53:00;;;;;;;84.03;41.80;;;;;;;;;;5048628;28;20669;-60
2023/05/15 01:55:27;;;;;;;118.20;44.37;;;;;;;;;;5048361;28;20040;-60
2023/05/15 01:57:53;;;;;;;87.93;40.23;;;;;;;;;;5049172;28;20048;-60
2023/05/15 02:00:20;;;;;;;156.57;45.43;;;;;;;;;;5047894;28;20609;-60
2023/05/15 02:02:47;;;;;;;106.20;42.70;;;;;;;;;;5047864;28;20525;-60
2023/05/15 02:05:14;;;;;;;302.87;59.30;;;;;;;;;;5048590;28;20049;-60
2023/05/15 02:07:42;;;;;;;100.00;45.47;;;;;;;;;;5048521;28;20091;-60
2023/05/15 02:10:09;;;;;;;107.37;44.57;;;;;;;;;;5048460;28;20049;-60
2023/05/15 02:12:35;;;;;;;98.00;40.57;;;;;;;;;;5049235;28;20068;-60
2023/05/15 02:15:02;;;;;;;73.53;38.60;;;;;;;;;;5048281;28;20052;-60
2023/05/15 02:17:28;;;;;;;106.67;42.67;;;;;;;;;;5048237;28;20521;-60
2023/05/15 02:19:55;;;;;;;83.30;40.23;;;;;;;;;;5048421;28;20186;-61
2023/05/15 02:22:21;;;;;;;79.87;39.77;;;;;;;;;;5048253;28;20151;-60
2023/05/15 02:24:47;;;;;;;87.73;42.57;;;;;;;;;;5048105;28;20133;-60
2023/05/15 02:27:17;;;;;;;112.37;46.17;;;;;;;;;;5046877;28;20132;-60
2023/05/15 02:30:01;;;;;;;75.80;38.30;;;;;;;;;;5048216;28;20495;-60
2023/05/15 02:32:33;;;;;;;53.50;33.83;;;;;;;;;;5047993;28;20053;-60
2023/05/15 02:35:15;;;;;;;57.90;33.50;;;;;;;;;;5048334;28;20044;-60
2023/05/15 02:37:41;;;;;;;58.73;34.60;;;;;;;;;;5048462;28;20052;-60
2023/05/15 02:40:09;;;;;;;126.40;40.37;;;;;;;;;;5047782;28;20146;-60
2023/05/15 02:42:36;;;;;;;49.40;31.10;;;;;;;;;;5048094;28;20045;-60
2023/05/15 02:45:03;;;;;;;57.03;32.37;;;;;;;;;;5048235;28;20049;-61
2023/05/15 02:47:29;;;;;;;57.17;34.13;;;;;;;;;;5048566;28;20103;-60
2023/05/15 02:49:56;;;;;;;75.97;35.73;;;;;;;;;;5047874;28;20052;-60
2023/05/15 02:52:23;;;;;;;61.70;33.90;;;;;;;;;;5047443;28;20123;-60
2023/05/15 02:54:49;;;;;;;73.73;34.47;;;;;;;;;;5048494;28;20049;-60
2023/05/15 02:57:15;;;;;;;50.57;32.50;;;;;;;;;;5047656;28;20048;-60
2023/05/15 02:59:41;;;;;;;262.57;42.10;;;;;;;;;;5048035;28;20495;-60
2023/05/15 03:02:07;;;;;;;90.63;35.27;;;;;;;;;;5047867;28;20122;-60
2023/05/15 03:04:33;;;;;;;270.30;49.43;;;;;;;;;;5048113;28;20179;-60
2023/05/15 03:06:59;;;;;;;52.93;31.97;;;;;;;;;;5047967;28;20104;-60
2023/05/15 03:09:25;;;;;;;66.67;35.27;;;;;;;;;;5047539;28;20047;-61
2023/05/15 03:11:51;;;;;;;75.40;34.00;;;;;;;;;;5047475;28;20045;-60
2023/05/15 03:14:17;;;;;;;79.53;37.27;;;;;;;;;;5047575;28;20403;-61
2023/05/15 03:16:43;;;;;;;67.43;33.23;;;;;;;;;;5047398;28;20515;-61
2023/05/15 03:19:09;;;;;;;60.00;34.80;;;;;;;;;;5047513;28;20130;-60
2023/05/15 03:21:35;;;;;;;45.93;30.17;;;;;;;;;;5047797;28;20048;-60
2023/05/15 03:24:01;;;;;;;97.87;31.30;;;;;;;;;;5048277;28;20406;-60
2023/05/15 03:26:27;;;;;;;63.30;32.53;;;;;;;;;;5047193;28;20071;-60
2023/05/15 03:28:53;;;;;;;175.73;39.50;;;;;;;;;;5047300;28;20076;-60
2023/05/15 03:31:19;;;;;;;240.73;47.93;;;;;;;;;;5046820;28;20091;-61
2023/05/15 03:33:48;;;;;;;73.23;34.57;;;;;;;;;;5047170;28;20423;-60
2023/05/15 03:36:14;;;;;;;78.90;34.33;;;;;;;;;;5046264;28;20692;-60
2023/05/15 03:38:42;;;;;;;67.83;36.10;;;;;;;;;;5048059;28;20041;-60
2023/05/15 03:41:08;;;;;;;72.60;35.97;;;;;;;;;;5047807;28;20080;-60
2023/05/15 03:43:35;;;;;;;126.30;43.23;;;;;;;;;;5046742;28;20716;-60
2023/05/15 03:46:01;;;;;;;73.43;34.83;;;;;;;;;;5047117;28;20041;-60
2023/05/15 03:48:27;;;;;;;69.97;37.27;;;;;;;;;;5046421;28;20036;-61
2023/05/15 03:50:53;;;;;;;65.30;34.17;;;;;;;;;;5046951;28;20384;-61
2023/05/15 03:53:19;;;;;;;83.43;39.73;;;;;;;;;;5046660;28;20414;-60
2023/05/15 03:55:45;;;;;;;70.77;34.03;;;;;;;;;;5046495;28;20045;-60
2023/05/15 03:58:11;;;;;;;116.90;45.43;;;;;;;;;;5047334;28;20049;-60
2023/05/15 04:00:37;;;;;;;65.67;36.00;;;;;;;;;;5047112;28;20052;-60
2023/05/15 04:03:03;;;;;;;67.77;36.83;;;;;;;;;;5046960;28;20094;-60
2023/05/15 04:05:29;;;;;;;62.43;38.73;;;;;;;;;;5047105;28;20059;-60
2023/05/15 04:07:55;;;;;;;58.43;34.50;;;;;;;;;;5046880;28;20037;-60
2023/05/15 04:10:21;;;;;;;63.60;35.70;;;;;;;;;;5048250;28;20057;-60
2023/05/15 04:12:47;;;;;;;66.17;37.93;;;;;;;;;;5051526;28;20041;-60
2023/05/15 04:15:20;;;;;;;66.47;37.63;;;;;;;;;;5050357;28;20048;-60
2023/05/15 04:17:47;;;;;;;80.70;39.47;;;;;;;;;;5050994;28;20045;-60
2023/05/15 04:20:14;;;;;;;54.63;34.20;;;;;;;;;;5050250;28;20768;-61
2023/05/15 04:22:40;;;;;;;61.47;34.77;;;;;;;;;;5050386;28;20041;-60
2023/05/15 04:25:06;;;;;;;53.97;33.20;;;;;;;;;;5050892;28;20124;-60
2023/05/15 04:27:33;;;;;;;46.40;31.00;;;;;;;;;;5050289;28;20718;-60
2023/05/15 04:30:00;;;;;;;65.43;34.53;;;;;;;;;;5050165;28;20486;-60
2023/05/15 04:32:26;;;;;;;55.23;33.57;;;;;;;;;;5049830;28;20459;-60
2023/05/15 04:34:52;;;;;;;53.90;32.27;;;;;;;;;;5049611;28;20045;-60
2023/05/15 04:37:19;;;;;;;47.93;29.90;;;;;;;;;;5049963;28;20533;-60
2023/05/15 04:39:45;;;;;;;53.90;33.33;;;;;;;;;;5050425;28;20037;-60
2023/05/15 04:42:11;;;;;;;42.03;30.17;;;;;;;;;;5050481;28;20048;-60
2023/05/15 04:44:37;;;;;;;43.80;30.70;;;;;;;;;;5049740;28;20063;-61
2023/05/15 04:47:03;;;;;;;41.80;27.93;;;;;;;;;;5049517;28;20133;-61
2023/05/15 04:49:29;;;;;;;42.37;28.80;;;;;;;;;;5055014;28;20048;-60
2023/05/15 04:51:55;;;;;;;50.57;32.07;;;;;;;;;;5069598;28;20558;-60
2023/05/15 04:54:21;;;;;;;42.63;30.43;;;;;;;;;;5069387;28;20041;-60
2023/05/15 04:56:47;;;;;;;46.67;30.63;;;;;;;;;;5070461;28;20070;-60
2023/05/15 04:59:14;;;;;;;45.37;31.03;;;;;;;;;;5070590;28;20451;-61
2023/05/15 05:01:40;;;;;;;44.80;29.60;;;;;;;;;;5064347;28;20056;-61
2023/05/15 05:04:07;;;;;;;42.10;30.27;;;;;;;;;;5049702;28;20086;-60
2023/05/15 05:06:32;;;;;;;37.87;28.07;;;;;;;;;;5049491;28;20095;-60
2023/05/15 05:08:59;;;;;;;44.33;30.43;;;;;;;;;;5050034;28;20119;-60
2023/05/15 05:11:25;;;;;;;36.93;26.97;;;;;;;;;;5059486;28;20127;-61
2023/05/15 05:13:51;;;;;;;37.73;26.93;;;;;;;;;;5058793;28;20503;-60
2023/05/15 05:16:17;;;;;;;36.33;27.50;;;;;;;;;;5059019;28;20052;-60
2023/05/15 05:18:43;;;;;;;39.20;27.93;;;;;;;;;;5056480;28;20402;-60
2023/05/15 05:21:09;;;;;;;32.17;24.90;;;;;;;;;;5060240;28;20127;-60
2023/05/15 05:23:35;;;;;;;31.43;23.17;;;;;;;;;;5055692;28;20040;-60
2023/05/15 05:26:01;;;;;;;33.77;24.60;;;;;;;;;;5050809;28;20131;-61
2023/05/15 05:28:27;;;;;;;31.83;24.27;;;;;;;;;;5060120;28;20460;-60
2023/05/15 05:30:53;;;;;;;33.53;23.90;;;;;;;;;;5056745;28;20666;-60
2023/05/15 05:33:19;;;;;;;32.33;24.03;;;;;;;;;;5048602;28;20045;-60
2023/05/15 05:35:45;;;;;;;29.10;23.67;;;;;;;;;;5048346;28;20444;-60
2023/05/15 05:38:12;;;;;;;29.37;22.83;;;;;;;;;;5049249;28;20625;-60
2023/05/15 05:40:38;;;;;;;33.97;22.63;;;;;;;;;;5048559;28;20486;-60
2023/05/15 05:43:04;;;;;;;29.27;22.67;;;;;;;;;;5049092;28;20051;-60
2023/05/15 05:45:30;;;;;;;32.83;24.27;;;;;;;;;;5049854;28;20110;-61
2023/05/15 05:47:56;;;;;;;27.73;21.90;;;;;;;;;;5048870;28;20041;-61
2023/05/15 05:50:23;;;;;;;31.43;22.07;;;;;;;;;;5048040;28;20311;-62
2023/05/15 05:52:49;;;;;;;26.03;21.53;;;;;;;;;;5050617;28;20048;-61
2023/05/15 05:55:15;;;;;;;29.73;22.77;;;;;;;;;;5048160;28;20045;-61
2023/05/15 05:57:42;;;;;;;28.80;22.37;;;;;;;;;;5049106;28;20712;-61
2023/05/15 06:00:09;;;;;;;27.83;21.17;;;;;;;;;;5049559;28;20040;-61
2023/05/15 06:02:36;;;;;;;28.90;21.27;;;;;;;;;;5049552;28;20049;-59
2023/05/15 06:05:02;;;;;;;31.00;22.53;;;;;;;;;;5049103;28;20048;-61
2023/05/15 06:07:28;;;;;;;28.20;20.93;;;;;;;;;;5049077;28;20045;-61
2023/05/15 06:09:54;;;;;;;30.77;22.33;;;;;;;;;;5049600;28;20044;-62
2023/05/15 06:12:20;;;;;;;31.17;22.60;;;;;;;;;;5049110;28;20053;-62
2023/05/15 06:14:46;;;;;;;30.63;23.13;;;;;;;;;;5049158;28;20049;-61
2023/05/15 06:17:12;;;;;;;32.17;22.90;;;;;;;;;;5048952;28;20411;-61
2023/05/15 06:19:38;;;;;;;31.53;21.80;;;;;;;;;;5048783;28;20049;-62
2023/05/15 06:22:04;;;;;;;33.27;22.63;;;;;;;;;;5048684;28;20103;-61
2023/05/15 06:24:31;;;;;;;33.73;22.53;;;;;;;;;;5049013;28;20500;-61
2023/05/15 06:26:57;;;;;;;30.03;22.53;;;;;;;;;;5049004;28;20478;-61
2023/05/15 06:29:23;;;;;;;34.00;24.80;;;;;;;;;;5048808;28;20045;-62
2023/05/15 06:31:49;;;;;;;30.37;23.40;;;;;;;;;;5053826;28;20048;-60
2023/05/15 06:34:15;;;;;;;30.17;22.37;;;;;;;;;;5057760;28;20049;-60
2023/05/15 06:36:41;;;;;;;32.00;22.70;;;;;;;;;;5062794;28;20050;-61
2023/05/15 06:39:09;;;;;;;30.33;21.83;;;;;;;;;;5068728;28;20056;-60
2023/05/15 06:41:36;;;;;;;29.03;22.53;;;;;;;;;;5068522;28;20189;-61
2023/05/15 06:44:02;;;;;;;25.70;20.40;;;;;;;;;;5068825;28;20561;-60
2023/05/15 06:46:28;;;;;;;28.83;22.20;;;;;;;;;;5063668;28;20041;-60
2023/05/15 06:48:54;;;;;;;28.67;21.30;;;;;;;;;;5060196;28;20106;-61
2023/05/15 06:51:20;;;;;;;25.63;21.30;;;;;;;;;;5048576;28;20045;-61
2023/05/15 06:53:46;;;;;;;24.90;20.90;;;;;;;;;;5048069;28;20041;-59
2023/05/15 06:56:12;;;;;;;31.37;22.07;;;;;;;;;;5048486;28;20136;-60
2023/05/15 06:58:38;;;;;;;28.50;22.03;;;;;;;;;;5050732;28;20090;-60
2023/05/15 07:01:05;;;;;;;27.83;21.77;;;;;;;;;;5058213;28;20083;-60
2023/05/15 07:03:32;;;;;;;24.37;19.87;;;;;;;;;;5058449;28;20071;-60
2023/05/15 07:05:58;;;;;;;23.87;19.10;;;;;;;;;;5056253;28;20575;-60
2023/05/15 07:08:24;;;;;;;25.97;20.53;;;;;;;;;;5058144;28;20072;-60
2023/05/15 07:10:50;;;;;;;30.27;20.07;;;;;;;;;;5058289;28;20049;-60
2023/05/15 07:13:17;;;;;;;23.97;19.83;;;;;;;;;;5060500;28;20036;-61
2023/05/15 07:15:43;;;;;;;22.93;19.27;;;;;;;;;;5064562;28;20041;-61
2023/05/15 07:18:09;;;;;;;26.80;20.20;;;;;;;;;;5064706;28;20067;-61
2023/05/15 07:20:35;;;;;;;20.50;17.27;;;;;;;;;;5059677;28;20486;-61
2023/05/15 07:23:01;;;;;;;25.00;18.63;;;;;;;;;;5053322;28;20421;-61
2023/05/15 07:25:27;;;;;;;24.37;17.83;;;;;;;;;;5060031;28;20037;-61
2023/05/15 07:27:54;;;;;;;21.77;17.33;;;;;;;;;;5056422;28;20041;-61
2023/05/15 07:30:20;;;;;;;22.77;16.80;;;;;;;;;;5050242;28;20114;-61
2023/05/15 07:32:46;;;;;;;23.67;18.47;;;;;;;;;;5058687;28;20056;-60
2023/05/15 07:35:12;;;;;;;21.43;17.13;;;;;;;;;;5057816;28;20049;-60
2023/05/15 07:37:38;;;;;;;18.87;16.80;;;;;;;;;;5045129;28;20048;-61
2023/05/15 07:40:05;;;;;;;22.30;17.43;;;;;;;;;;5049831;28;20095;-61
2023/05/15 07:42:31;;;;;;;25.63;16.80;;;;;;;;;;5048433;28;20045;-61
2023/05/15 07:44:57;;;;;;;18.27;15.50;;;;;;;;;;5047853;28;20560;-61
2023/05/15 07:47:23;;;;;;;19.67;14.60;;;;;;;;;;5051843;28;20566;-61
2023/05/15 07:49:49;;;;;;;18.60;14.10;;;;;;;;;;5051797;28;20431;-61
2023/05/15 07:52:15;;;;;;;17.63;12.33;;;;;;;;;;5051438;28;20118;-61
2023/05/15 07:54:41;;;;;;;15.57;12.50;;;;;;;;;;5056204;28;20037;-60
2023/05/15 07:57:08;;;;;;;15.73;11.77;;;;;;;;;;5051595;28;20103;-61
2023/05/15 07:59:34;;;;;;;14.90;12.33;;;;;;;;;;5051432;28;20415;-61
2023/05/15 08:02:00;;;;;;;16.43;12.30;;;;;;;;;;5052348;28;20068;-61
2023/05/15 08:04:27;;;;;;;14.70;12.20;;;;;;;;;;5051616;28;20171;-61
2023/05/15 08:06:53;;;;;;;13.77;12.30;;;;;;;;;;5057772;28;20485;-61
2023/05/15 08:09:19;;;;;;;13.53;12.10;;;;;;;;;;5059416;28;20499;-61
2023/05/15 08:11:45;;;;;;;12.63;11.33;;;;;;;;;;5055222;28;20120;-61
2023/05/15 08:14:11;;;;;;;15.13;11.67;;;;;;;;;;5048303;28;20052;-61
2023/05/15 08:16:37;;;;;;;13.63;11.20;;;;;;;;;;5058551;28;20033;-61
2023/05/15 08:19:05;;;;;;;15.50;10.93;;;;;;;;;;5050848;28;20103;-61
2023/05/15 08:21:31;;;;;;;14.43;10.40;;;;;;;;;;5049262;28;20049;-60
2023/05/15 08:23:58;;;;;;;12.40;9.80;;;;;;;;;;5055796;28;20107;-61
2023/05/15 08:26:24;;;;;;;11.50;9.93;;;;;;;;;;5055417;28;20049;-61
2023/05/15 08:28:50;;;;;;;11.63;10.53;;;;;;;;;;5062380;28;20041;-61
2023/05/15 08:31:16;;;;;;;14.53;11.10;;;;;;;;;;5059902;28;20047;-61
2023/05/15 08:33:42;;;;;;;14.80;10.73;;;;;;;;;;5062073;28;20071;-61
2023/05/15 08:36:08;;;;;;;13.60;11.20;;;;;;;;;;5060463;28;20063;-61
2023/05/15 08:38:34;;;;;;;14.70;11.40;;;;;;;;;;5063729;28;20072;-61
2023/05/15 08:41:05;;;;;;;13.70;10.97;;;;;;;;;;5052357;28;20052;-61
2023/05/15 08:43:35;;;;;;;14.47;11.57;;;;;;;;;;5064074;28;20071;-61
2023/05/15 08:46:02;;;;;;;13.50;10.87;;;;;;;;;;5059311;28;20119;-61
2023/05/15 08:48:29;;;;;;;11.20;9.73;;;;;;;;;;5061016;28;20077;-61
2023/05/15 08:50:57;;;;;;;15.47;10.50;;;;;;;;;;5060652;28;20496;-61
2023/05/15 08:53:23;;;;;;;11.97;9.83;;;;;;;;;;5058784;28;20037;-61
2023/05/15 08:55:49;;;;;;;11.00;8.70;;;;;;;;;;5061087;28;20040;-61
2023/05/15 08:58:20;;;;;;;10.87;9.60;;;;;;;;;;5059050;28;20099;-61
2023/05/15 09:00:47;;;;;;;12.83;10.00;;;;;;;;;;5056672;28;20130;-61
2023/05/15 09:03:14;;;;;;;12.17;9.20;;;;;;;;;;5059101;28;20052;-62
2023/05/15 09:05:40;;;;;;;11.10;9.17;;;;;;;;;;5060795;28;20425;-62
2023/05/15 09:08:07;;;;;;;12.37;9.67;;;;;;;;;;5058015;28;20041;-61
2023/05/15 09:10:35;;;;;;;10.30;9.20;;;;;;;;;;5059875;28;20037;-61
2023/05/15 09:13:03;;;;;;;12.17;9.93;;;;;;;;;;5059455;28;20040;-61
2023/05/15 09:15:29;;;;;;;14.03;10.20;;;;;;;;;;5057513;28;20083;-62
2023/05/15 09:17:56;;;;;;;10.80;9.70;;;;;;;;;;5064442;28;20044;-61
2023/05/15 09:20:32;;;;;;;10.33;9.33;;;;;;;;;;5065778;28;20040;-61
2023/05/15 09:22:58;;;;;;;10.27;9.10;;;;;;;;;;5052585;28;20047;-62
2023/05/15 09:25:34;;;;;;;10.53;9.47;;;;;;;;;;5061485;28;20147;-62
2023/05/15 09:28:00;;;;;;;13.63;10.80;;;;;;;;;;5060653;28;20152;-61
2023/05/15 09:30:27;;;;;;;12.20;9.37;;;;;;;;;;5055440;28;20037;-61
2023/05/15 09:32:53;;;;;;;9.93;8.63;;;;;;;;;;5054209;28;20519;-61
2023/05/15 09:35:30;;;;;;;10.80;9.17;;;;;;;;;;5055553;28;20044;-60
2023/05/15 09:38:00;;;;;;;11.43;10.23;;;;;;;;;;5052020;28;20037;-61
2023/05/15 09:40:30;;;;;;;12.13;9.23;;;;;;;;;;5050464;28;20048;-61
2023/05/15 09:42:56;;;;;;;13.37;10.93;;;;;;;;;;5049521;28;20045;-61
2023/05/15 09:45:24;;;;;;;9.60;8.57;;;;;;;;;;5055321;28;20135;-61
2023/05/15 09:47:50;;;;;;;11.97;10.30;;;;;;;;;;5062592;28;20130;-61
2023/05/15 09:50:23;;;;;;;20.23;10.93;;;;;;;;;;5070099;28;20067;-61
2023/05/15 09:52:50;;;;;;;10.93;9.17;;;;;;;;;;5069891;28;20120;-61
2023/05/15 09:55:18;;;;;;;12.23;8.87;;;;;;;;;;5069499;28;20462;-62
2023/05/15 09:57:44;;;;;;;10.97;9.20;;;;;;;;;;5069615;28;20044;-61
2023/05/15 10:00:11;;;;;;;9.67;8.63;;;;;;;;;;5069516;28;20040;-61
2023/05/15 10:02:40;;;;;;;9.47;8.07;;;;;;;;;;5069463;28;20514;-62
2023/05/15 10:05:06;;;;;;;10.90;9.80;;;;;;;;;;5069010;28;20044;-60
2023/05/15 10:07:35;;;;;;;10.43;8.27;;;;;;;;;;5069073;28;20047;-60
2023/05/15 10:10:02;;;;;;;11.93;9.20;;;;;;;;;;5069071;28;20041;-60
2023/05/15 10:12:30;;;;;;;9.33;8.33;;;;;;;;;;5050756;28;20053;-60
2023/05/15 10:14:57;;;;;;;14.27;8.05;;;;;;;;;;5051895;28;20056;-62
2023/05/15 10:17:23;;;;;;;8.55;7.60;;;;;;;;;;5049471;28;20138;-61
2023/05/15 10:19:50;;;;;;;10.02;8.25;;;;;;;;;;5049125;28;20103;-61
2023/05/15 10:22:24;;;;;;;11.05;8.77;;;;;;;;;;5049413;28;20051;-61
2023/05/15 10:25:00;;;;;;;10.98;8.50;;;;;;;;;;5049205;28;20063;-61
2023/05/15 10:27:26;;;;;;;11.43;9.20;;;;;;;;;;5049090;28;20522;-62
2023/05/15 10:29:52;;;;;;;13.48;10.05;;;;;;;;;;5049079;28;20041;-61
2023/05/15 10:32:19;;;;;;;11.90;9.55;;;;;;;;;;5051187;28;20075;-62
2023/05/15 10:34:46;;;;;;;12.13;10.93;;;;;;;;;;5051440;28;20051;-61
2023/05/15 10:37:12;;;;;;;12.20;10.90;;;;;;;;;;5042353;28;20041;-61
2023/05/15 10:39:39;;;;;;;15.38;13.77;;;;;;;;;;5048680;28;20507;-61
2023/05/15 10:42:07;;;;;;;14.02;12.52;;;;;;;;;;5048530;28;20045;-61
2023/05/15 10:44:33;;;;;;;14.75;12.93;;;;;;;;;;5049118;28;20049;-62
2023/05/15 10:47:00;;;;;;;13.77;11.75;;;;;;;;;;5048953;28;20041;-62
2023/05/15 10:49:26;;;;;;;13.68;12.23;;;;;;;;;;5062483;28;20102;-61
2023/05/15 10:51:52;;;;;;;13.68;12.25;;;;;;;;;;5063228;28;20064;-61
2023/05/15 10:54:18;;;;;;;12.68;11.30;;;;;;;;;;5061945;28;20048;-62
2023/05/15 10:56:44;;;;;;;12.30;11.20;;;;;;;;;;5068977;28;20151;-61
2023/05/15 10:59:11;;;;;;;14.60;13.10;;;;;;;;;;5068473;28;20075;-61
2023/05/15 11:01:38;;;;;;;13.25;11.73;;;;;;;;;;5063006;28;20052;-62
2023/05/15 11:04:14;;;;;;;14.43;13.07;;;;;;;;;;5068647;28;20044;-62
2023/05/15 11:06:41;;;;;;;14.68;13.18;;;;;;;;;;5069033;28;20089;-62
2023/05/15 11:09:23;;;;;;;15.52;13.00;;;;;;;;;;5056450;28;20041;-61
2023/05/15 11:11:52;;;;;;;14.20;12.75;;;;;;;;;;5060353;28;20053;-61
2023/05/15 11:14:25;;;;;;;14.15;11.90;;;;;;;;;;5053309;28;20130;-61
2023/05/15 11:16:53;;;;;;;13.82;12.38;;;;;;;;;;5048725;28;20416;-61
2023/05/15 11:19:31;;;;;;;14.05;11.70;;;;;;;;;;5047695;28;20048;-61
2023/05/15 11:21:58;;;;;;;12.75;11.52;;;;;;;;;;5051878;28;20051;-61
2023/05/15 11:24:29;;;;;;;15.20;12.10;;;;;;;;;;5052467;28;20056;-61
2023/05/15 11:27:01;;;;;;;11.88;10.68;;;;;;;;;;5052925;28;20041;-61
2023/05/15 11:29:28;;;;;;;12.45;11.10;;;;;;;;;;5052504;28;20045;-61
2023/05/15 11:31:54;;;;;;;11.43;10.27;;;;;;;;;;5052381;28;20064;-61
2023/05/15 11:34:33;;;;;;;10.23;9.23;;;;;;;;;;5052590;28;20041;-61
2023/05/15 11:37:00;;;;;;;10.88;9.82;;;;;;;;;;5052487;28;20052;-61
2023/05/15 11:39:26;;;;;;;11.30;10.20;;;;;;;;;;5052428;28;20106;-61
2023/05/15 11:41:53;;;;;;;10.35;8.70;;;;;;;;;;5050655;28;20083;-61
2023/05/15 11:44:22;;;;;;;13.25;10.40;;;;;;;;;;5050132;28;20053;-61
2023/05/15 11:46:52;;;;;;;11.15;9.70;;;;;;;;;;5048896;28;20057;-61
2023/05/15 11:49:19;;;;;;;11.82;10.57;;;;;;;;;;5050755;28;20057;-61
2023/05/15 11:51:47;;;;;;;10.73;9.63;;;;;;;;;;5050678;28;20045;-61
2023/05/15 11:54:15;;;;;;;12.02;10.90;;;;;;;;;;5049245;28;20101;-61
2023/05/15 11:56:43;;;;;;;11.82;9.90;;;;;;;;;;5048838;28;20052;-60
2023/05/15 11:59:09;;;;;;;10.55;8.23;;;;;;;;;;5049508;28;20577;-61
2023/05/15 12:01:40;;;;;;;11.80;9.85;;;;;;;;;;5050441;28;20053;-61
2023/05/15 12:04:16;;;;;;;11.00;9.68;;;;;;;;;;5050304;28;20045;-60
2023/05/15 12:06:48;;;;;;;9.65;8.75;;;;;;;;;;5049907;28;20087;-61
2023/05/15 12:09:15;;;;;;;9.45;8.05;;;;;;;;;;5050665;28;20518;-61
2023/05/15 12:11:47;;;;;;;10.02;7.47;;;;;;;;;;5052042;28;20053;-61
2023/05/15 12:14:13;;;;;;;8.70;7.85;;;;;;;;;;5051283;28;20045;-61
2023/05/15 12:16:39;;;;;;;9.90;7.18;;;;;;;;;;5052050;28;20037;-61
2023/05/15 12:19:05;;;;;;;8.23;6.43;;;;;;;;;;5051553;28;20094;-61
2023/05/15 12:21:31;;;;;;;9.20;6.68;;;;;;;;;;5050997;28;20060;-61
2023/05/15 12:23:57;;;;;;;9.68;7.75;;;;;;;;;;5051271;28;20041;-61
2023/05/15 12:26:24;;;;;;;10.18;8.20;;;;;;;;;;5051294;28;20449;-61
2023/05/15 12:28:53;;;;;;;8.45;7.65;;;;;;;;;;5051377;28;20045;-61
2023/05/15 12:31:19;;;;;;;10.40;7.07;;;;;;;;;;5050658;28;20084;-61
2023/05/15 12:33:45;;;;;;;8.75;7.85;;;;;;;;;;5051424;28;20045;-61
2023/05/15 12:36:11;;;;;;;8.77;6.68;;;;;;;;;;5051084;28;20045;-61
2023/05/15 12:38:39;;;;;;;9.73;8.82;;;;;;;;;;5051242;28;20080;-61
2023/05/15 12:41:05;;;;;;;9.70;8.75;;;;;;;;;;5051255;28;20055;-61
2023/05/15 12:43:31;;;;;;;9.55;7.75;;;;;;;;;;5051357;28;20037;-61
2023/05/15 12:45:57;;;;;;;8.30;7.53;;;;;;;;;;5050885;28;20511;-61
2023/05/15 12:48:29;;;;;;;10.32;7.90;;;;;;;;;;5051110;28;20159;-60
2023/05/15 12:50:55;;;;;;;10.23;8.23;;;;;;;;;;5051076;28;20041;-60
2023/05/15 12:53:21;;;;;;;10.45;8.02;;;;;;;;;;5051036;28;20139;-62
2023/05/15 12:55:47;;;;;;;8.02;6.97;;;;;;;;;;5051099;28;20094;-62
2023/05/15 12:58:17;;;;;;;10.18;8.00;;;;;;;;;;5050231;28;20128;-62
2023/05/15 13:00:45;;;;;;;7.63;6.63;;;;;;;;;;5050930;28;20132;-63
2023/05/15 13:03:12;;;;;;;8.23;6.53;;;;;;;;;;5053123;28;20059;-60
2023/05/15 13:05:39;;;;;;;8.52;6.70;;;;;;;;;;5058807;28;20037;-60
2023/05/15 13:08:08;;;;;;;6.45;5.85;;;;;;;;;;5060602;28;20526;-61
2023/05/15 13:10:36;;;;;;;7.50;6.70;;;;;;;;;;5057666;28;20098;-61
2023/05/15 13:13:03;;;;;;;6.85;5.97;;;;;;;;;;5057860;28;20439;-61
2023/05/15 13:15:29;;;;;;;5.25;4.75;;;;;;;;;;5059737;28;20032;-61
2023/05/15 13:18:15;;;;;;;5.55;4.53;;;;;;;;;;5058406;28;20040;-61
2023/05/15 13:20:46;;;;;;;5.00;4.10;;;;;;;;;;5055535;28;20041;-61
2023/05/15 13:23:13;;;;;;;6.00;5.32;;;;;;;;;;5057664;28;20048;-61
2023/05/15 13:25:40;;;;;;;4.85;4.35;;;;;;;;;;5058670;28;20114;-61
2023/05/15 13:28:06;;;;;;;5.65;5.10;;;;;;;;;;5058200;28;20716;-61
2023/05/15 13:30:33;;;;;;;6.85;5.53;;;;;;;;;;5057982;28;20040;-61
2023/05/15 13:32:59;;;;;;;23.58;21.23;;;;;;;;;;5059016;28;20049;-61
2023/05/15 13:35:26;;;;;;;11.85;8.30;;;;;;;;;;5058844;28;20049;-61
2023/05/15 13:37:52;;;;;;;7.20;5.40;;;;;;;;;;5057546;28;21422;-61
2023/05/15 13:40:18;;;;;;;8.18;5.88;;;;;;;;;;5069539;28;20051;-61
2023/05/15 13:42:44;;;;;;;24.80;18.98;;;;;;;;;;5068176;28;20056;-61
2023/05/15 13:45:11;;;;;;;8.38;7.53;;;;;;;;;;5069184;28;20049;-61
2023/05/15 13:47:40;;;;;;;8.88;7.15;;;;;;;;;;5063056;28;20053;-61
2023/05/15 13:50:10;;;;;;;7.85;6.80;;;;;;;;;;5058177;28;20110;-61
2023/05/15 13:52:37;;;;;;;8.00;7.20;;;;;;;;;;5057328;28;20090;-61
2023/05/15 13:55:05;;;;;;;8.07;7.18;;;;;;;;;;5058097;28;20043;-61
2023/05/15 13:57:32;;;;;;;7.28;6.57;;;;;;;;;;5056938;28;20485;-61
2023/05/15 13:59:58;;;;;;;8.60;7.78;;;;;;;;;;5058214;28;20056;-61
2023/05/15 14:02:28;;;;;;;7.95;6.25;;;;;;;;;;5057494;28;20109;-61
2023/05/15 14:04:54;;;;;;;9.65;7.43;;;;;;;;;;5056637;28;20037;-61
2023/05/15 14:07:23;;;;;;;9.85;8.63;;;;;;;;;;5059386;28;20041;-61
2023/05/15 14:09:49;;;;;;;13.07;8.75;;;;;;;;;;5056865;28;20476;-60
2023/05/15 14:12:15;;;;;;;11.40;7.85;;;;;;;;;;5057637;28;20041;-60
2023/05/15 14:14:41;;;;;;;10.35;8.10;;;;;;;;;;5056593;28;20407;-60
2023/05/15 14:17:07;;;;;;;8.60;7.70;;;;;;;;;;5057349;28;20051;-61
2023/05/15 14:19:33;;;;;;;9.38;8.43;;;;;;;;;;5056930;28;20040;-61
2023/05/15 14:22:00;;;;;;;11.18;7.95;;;;;;;;;;5059167;28;20899;-61